Winchester Bay, Oregon
Current Conditions -  °F | °C
As of 2:15 PM on Sunday 21 Dec 2014 (Local Time) from KOTH Reporting Station
Overcast Overcast  
Wind Chill: 57°   Ceiling: 600
Heat Index: 57°   Visibility: 8mi
Dew Point: 57°   Wind: 8mph
Humidity: 100%   Direction: 240°WSW
Pressure: 30.2"   Gusts: NA
Location:  43.8192°N, 123.875°W
Report Text: KOTH 212215Z 24007KT 8SM BKN006 OVC016 14/14 A3020 RMK AO1 DZ
Loading
Personal Weather Stations






























Interactive Weather Map New forecast layout! Learn more

10-Day Weather Forecast

Advertisements
Track Severe Weather on mobile